sensor_id;sensor_type;location;lat;lon;timestamp;P1;durP1;ratioP1;P2;durP2;ratioP2
21780;SDS011;52576;53.614;9.894;2022-09-09T00:00:24;55.58;;;33.95;;
21780;SDS011;52576;53.614;9.894;2022-09-09T00:01:29;59.03;;;33.92;;
21780;SDS011;52576;53.614;9.894;2022-09-09T00:02:39;97.03;;;35.63;;
21780;SDS011;52576;53.614;9.894;2022-09-09T00:03:49;85.63;;;34.88;;
21780;SDS011;52576;53.614;9.894;2022-09-09T00:04:59;47.85;;;31.75;;
21780;SDS011;52576;53.614;9.894;2022-09-09T00:06:14;95.43;;;33.63;;
21780;SDS011;52576;53.614;9.894;2022-09-09T00:07:28;64.78;;;33.25;;
21780;SDS011;52576;53.614;9.894;2022-09-09T00:08:44;56.17;;;32.17;;
21780;SDS011;52576;53.614;9.894;2022-09-09T00:09:55;59.30;;;32.97;;
21780;SDS011;52576;53.614;9.894;2022-09-09T00:11:05;52.25;;;32.05;;
21780;SDS011;52576;53.614;9.894;2022-09-09T00:12:11;58.95;;;33.03;;
21780;SDS011;52576;53.614;9.894;2022-09-09T00:13:18;57.85;;;33.03;;
21780;SDS011;52576;53.614;9.894;2022-09-09T00:14:26;59.22;;;33.47;;
21780;SDS011;52576;53.614;9.894;2022-09-09T00:15:38;62.10;;;33.50;;
21780;SDS011;52576;53.614;9.894;2022-09-09T00:16:46;53.30;;;33.35;;
21780;SDS011;52576;53.614;9.894;2022-09-09T00:17:56;51.15;;;31.85;;
21780;SDS011;52576;53.614;9.894;2022-09-09T00:19:05;58.30;;;32.63;;
21780;SDS011;52576;53.614;9.894;2022-09-09T00:20:16;54.95;;;31.40;;
21780;SDS011;52576;53.614;9.894;2022-09-09T00:21:22;52.40;;;31.52;;
21780;SDS011;52576;53.614;9.894;2022-09-09T00:22:35;56.85;;;32.72;;
21780;SDS011;52576;53.614;9.894;2022-09-09T00:23:42;58.47;;;32.58;;
21780;SDS011;52576;53.614;9.894;2022-09-09T00:24:51;60.72;;;33.10;;
21780;SDS011;52576;53.614;9.894;2022-09-09T00:25:58;53.85;;;32.55;;
21780;SDS011;52576;53.614;9.894;2022-09-09T00:27:07;72.93;;;34.13;;
21780;SDS011;52576;53.614;9.894;2022-09-09T00:28:17;54.08;;;31.70;;
21780;SDS011;52576;53.614;9.894;2022-09-09T00:29:23;57.85;;;33.05;;
21780;SDS011;52576;53.614;9.894;2022-09-09T00:30:32;68.43;;;33.08;;
21780;SDS011;52576;53.614;9.894;2022-09-09T00:31:38;112.57;;;35.08;;
21780;SDS011;52576;53.614;9.894;2022-09-09T00:32:40;55.67;;;31.85;;
21780;SDS011;52576;53.614;9.894;2022-09-09T00:33:43;62.78;;;34.80;;
21780;SDS011;52576;53.614;9.894;2022-09-09T00:34:47;58.20;;;32.78;;
21780;SDS011;52576;53.614;9.894;2022-09-09T00:35:55;276.58;;;40.28;;
21780;SDS011;52576;53.614;9.894;2022-09-09T00:36:59;94.40;;;35.10;;
21780;SDS011;52576;53.614;9.894;2022-09-09T00:38:10;135.80;;;36.22;;
21780;SDS011;52576;53.614;9.894;2022-09-09T00:39:21;156.43;;;35.20;;
21780;SDS011;52576;53.614;9.894;2022-09-09T00:40:30;52.17;;;32.67;;
21780;SDS011;52576;53.614;9.894;2022-09-09T00:41:38;190.77;;;38.33;;
21780;SDS011;52576;53.614;9.894;2022-09-09T00:42:54;70.50;;;34.10;;
21780;SDS011;52576;53.614;9.894;2022-09-09T00:44:13;86.68;;;35.75;;
21780;SDS011;52576;53.614;9.894;2022-09-09T00:45:34;53.63;;;32.75;;
21780;SDS011;52576;53.614;9.894;2022-09-09T00:48:27;57.53;;;34.33;;
21780;SDS011;52576;53.614;9.894;2022-09-09T00:49:39;55.05;;;33.67;;
21780;SDS011;52576;53.614;9.894;2022-09-09T00:50:53;57.72;;;34.67;;
21780;SDS011;52576;53.614;9.894;2022-09-09T00:51:59;61.58;;;33.33;;
21780;SDS011;52576;53.614;9.894;2022-09-09T00:53:18;77.63;;;35.10;;
21780;SDS011;52576;53.614;9.894;2022-09-09T00:54:37;71.35;;;34.05;;
21780;SDS011;52576;53.614;9.894;2022-09-09T00:55:48;58.08;;;32.83;;
21780;SDS011;52576;53.614;9.894;2022-09-09T00:56:58;80.15;;;36.72;;
21780;SDS011;52576;53.614;9.894;2022-09-09T00:58:08;59.53;;;34.40;;
21780;SDS011;52576;53.614;9.894;2022-09-09T00:59:13;66.90;;;36.17;;
21780;SDS011;52576;53.614;9.894;2022-09-09T01:00:29;66.07;;;35.92;;
21780;SDS011;52576;53.614;9.894;2022-09-09T01:01:37;65.65;;;35.58;;
21780;SDS011;52576;53.614;9.894;2022-09-09T01:02:42;62.30;;;35.45;;
21780;SDS011;52576;53.614;9.894;2022-09-09T01:03:54;70.65;;;36.13;;
21780;SDS011;52576;53.614;9.894;2022-09-09T01:05:02;73.65;;;37.22;;
21780;SDS011;52576;53.614;9.894;2022-09-09T01:06:14;69.03;;;36.67;;
21780;SDS011;52576;53.614;9.894;2022-09-09T01:07:22;76.03;;;38.17;;
21780;SDS011;52576;53.614;9.894;2022-09-09T01:08:31;73.35;;;38.28;;
21780;SDS011;52576;53.614;9.894;2022-09-09T01:09:57;69.75;;;37.17;;
21780;SDS011;52576;53.614;9.894;2022-09-09T01:11:00;72.63;;;38.80;;
21780;SDS011;52576;53.614;9.894;2022-09-09T01:12:07;68.95;;;37.50;;
21780;SDS011;52576;53.614;9.894;2022-09-09T01:13:15;73.18;;;37.55;;
21780;SDS011;52576;53.614;9.894;2022-09-09T01:14:30;71.97;;;38.83;;
21780;SDS011;52576;53.614;9.894;2022-09-09T01:15:42;71.75;;;38.00;;
21780;SDS011;52576;53.614;9.894;2022-09-09T01:16:48;66.85;;;37.45;;
21780;SDS011;52576;53.614;9.894;2022-09-09T01:17:55;70.03;;;40.30;;
21780;SDS011;52576;53.614;9.894;2022-09-09T01:19:05;73.28;;;38.05;;
21780;SDS011;52576;53.614;9.894;2022-09-09T01:20:13;73.05;;;39.40;;
21780;SDS011;52576;53.614;9.894;2022-09-09T01:21:29;72.43;;;37.67;;
21780;SDS011;52576;53.614;9.894;2022-09-09T01:22:41;68.80;;;37.17;;
21780;SDS011;52576;53.614;9.894;2022-09-09T01:24:04;68.10;;;36.83;;
21780;SDS011;52576;53.614;9.894;2022-09-09T01:26:04;66.88;;;36.97;;
21780;SDS011;52576;53.614;9.894;2022-09-09T01:27:20;61.97;;;36.70;;
21780;SDS011;52576;53.614;9.894;2022-09-09T01:28:25;67.32;;;36.88;;
21780;SDS011;52576;53.614;9.894;2022-09-09T01:29:36;61.60;;;35.25;;
21780;SDS011;52576;53.614;9.894;2022-09-09T01:30:40;59.78;;;35.72;;
21780;SDS011;52576;53.614;9.894;2022-09-09T01:31:52;75.75;;;37.92;;
21780;SDS011;52576;53.614;9.894;2022-09-09T01:32:56;65.53;;;37.15;;
21780;SDS011;52576;53.614;9.894;2022-09-09T01:34:02;74.88;;;38.10;;
21780;SDS011;52576;53.614;9.894;2022-09-09T01:35:05;65.72;;;37.88;;
21780;SDS011;52576;53.614;9.894;2022-09-09T01:36:15;85.63;;;37.53;;
21780;SDS011;52576;53.614;9.894;2022-09-09T01:37:25;116.38;;;37.38;;
21780;SDS011;52576;53.614;9.894;2022-09-09T01:38:28;65.38;;;36.33;;
21780;SDS011;52576;53.614;9.894;2022-09-09T01:39:33;64.85;;;37.15;;
21780;SDS011;52576;53.614;9.894;2022-09-09T01:40:42;71.93;;;37.25;;
21780;SDS011;52576;53.614;9.894;2022-09-09T01:41:46;66.05;;;36.80;;
21780;SDS011;52576;53.614;9.894;2022-09-09T01:42:52;72.22;;;38.00;;
21780;SDS011;52576;53.614;9.894;2022-09-09T01:43:54;92.80;;;38.80;;
21780;SDS011;52576;53.614;9.894;2022-09-09T01:45:00;72.05;;;38.42;;
21780;SDS011;52576;53.614;9.894;2022-09-09T01:46:02;84.35;;;39.78;;
21780;SDS011;52576;53.614;9.894;2022-09-09T01:47:07;84.70;;;38.65;;
21780;SDS011;52576;53.614;9.894;2022-09-09T01:48:24;85.40;;;38.83;;
21780;SDS011;52576;53.614;9.894;2022-09-09T01:49:36;93.18;;;39.53;;
21780;SDS011;52576;53.614;9.894;2022-09-09T01:50:45;107.93;;;41.00;;
21780;SDS011;52576;53.614;9.894;2022-09-09T01:51:49;116.05;;;41.20;;
21780;SDS011;52576;53.614;9.894;2022-09-09T01:52:58;115.95;;;40.97;;
21780;SDS011;52576;53.614;9.894;2022-09-09T01:54:06;113.57;;;41.85;;
21780;SDS011;52576;53.614;9.894;2022-09-09T01:55:09;139.98;;;42.03;;
21780;SDS011;52576;53.614;9.894;2022-09-09T01:56:26;80.13;;;38.70;;
21780;SDS011;52576;53.614;9.894;2022-09-09T01:57:39;84.72;;;39.33;;
21780;SDS011;52576;53.614;9.894;2022-09-09T01:58:58;84.18;;;38.40;;
21780;SDS011;52576;53.614;9.894;2022-09-09T02:00:16;78.18;;;39.08;;
21780;SDS011;52576;53.614;9.894;2022-09-09T02:01:26;109.75;;;39.75;;
21780;SDS011;52576;53.614;9.894;2022-09-09T02:02:40;74.43;;;37.78;;
21780;SDS011;52576;53.614;9.894;2022-09-09T02:03:57;78.78;;;37.45;;
21780;SDS011;52576;53.614;9.894;2022-09-09T02:05:06;75.18;;;37.85;;
21780;SDS011;52576;53.614;9.894;2022-09-09T02:06:23;69.75;;;36.13;;
21780;SDS011;52576;53.614;9.894;2022-09-09T02:07:37;88.65;;;37.60;;
21780;SDS011;52576;53.614;9.894;2022-09-09T02:08:59;74.30;;;36.45;;
21780;SDS011;52576;53.614;9.894;2022-09-09T02:10:06;74.18;;;36.83;;
21780;SDS011;52576;53.614;9.894;2022-09-09T02:11:22;227.95;;;40.83;;
21780;SDS011;52576;53.614;9.894;2022-09-09T02:12:43;122.93;;;37.88;;
21780;SDS011;52576;53.614;9.894;2022-09-09T02:13:51;123.32;;;38.08;;
21780;SDS011;52576;53.614;9.894;2022-09-09T02:14:59;70.50;;;35.63;;
21780;SDS011;52576;53.614;9.894;2022-09-09T02:16:18;69.47;;;34.97;;
21780;SDS011;52576;53.614;9.894;2022-09-09T02:17:26;75.20;;;35.97;;
21780;SDS011;52576;53.614;9.894;2022-09-09T02:18:42;192.43;;;40.15;;
21780;SDS011;52576;53.614;9.894;2022-09-09T02:19:53;69.85;;;34.70;;
21780;SDS011;52576;53.614;9.894;2022-09-09T02:21:14;73.75;;;33.90;;
21780;SDS011;52576;53.614;9.894;2022-09-09T02:22:19;73.82;;;34.97;;
21780;SDS011;52576;53.614;9.894;2022-09-09T02:23:26;80.32;;;36.17;;
21780;SDS011;52576;53.614;9.894;2022-09-09T02:24:32;123.88;;;37.95;;
21780;SDS011;52576;53.614;9.894;2022-09-09T02:25:47;106.95;;;37.30;;
21780;SDS011;52576;53.614;9.894;2022-09-09T02:26:56;90.30;;;36.90;;
21780;SDS011;52576;53.614;9.894;2022-09-09T02:28:03;76.82;;;35.42;;
21780;SDS011;52576;53.614;9.894;2022-09-09T02:29:12;103.35;;;37.60;;
21780;SDS011;52576;53.614;9.894;2022-09-09T02:30:18;122.22;;;39.10;;
21780;SDS011;52576;53.614;9.894;2022-09-09T02:31:27;69.63;;;35.88;;
21780;SDS011;52576;53.614;9.894;2022-09-09T02:32:35;72.22;;;35.95;;
21780;SDS011;52576;53.614;9.894;2022-09-09T02:33:44;86.93;;;36.83;;
21780;SDS011;52576;53.614;9.894;2022-09-09T02:34:51;76.25;;;34.70;;
21780;SDS011;52576;53.614;9.894;2022-09-09T02:35:59;106.65;;;35.38;;
21780;SDS011;52576;53.614;9.894;2022-09-09T02:37:06;82.18;;;34.80;;
21780;SDS011;52576;53.614;9.894;2022-09-09T02:38:13;119.95;;;36.28;;
21780;SDS011;52576;53.614;9.894;2022-09-09T02:39:28;77.70;;;34.20;;
21780;SDS011;52576;53.614;9.894;2022-09-09T02:40:32;88.22;;;34.55;;
21780;SDS011;52576;53.614;9.894;2022-09-09T02:41:37;72.57;;;33.78;;
21780;SDS011;52576;53.614;9.894;2022-09-09T02:42:43;74.10;;;34.92;;
21780;SDS011;52576;53.614;9.894;2022-09-09T02:43:49;95.30;;;36.92;;
21780;SDS011;52576;53.614;9.894;2022-09-09T02:44:52;170.90;;;37.53;;
21780;SDS011;52576;53.614;9.894;2022-09-09T02:45:56;298.63;;;41.13;;
21780;SDS011;52576;53.614;9.894;2022-09-09T02:47:16;87.35;;;35.80;;
21780;SDS011;52576;53.614;9.894;2022-09-09T02:48:30;130.75;;;35.50;;
21780;SDS011;52576;53.614;9.894;2022-09-09T02:49:41;147.95;;;37.10;;
21780;SDS011;52576;53.614;9.894;2022-09-09T02:50:55;161.88;;;37.05;;
21780;SDS011;52576;53.614;9.894;2022-09-09T02:52:06;335.23;;;41.92;;
21780;SDS011;52576;53.614;9.894;2022-09-09T02:53:12;115.25;;;36.25;;
21780;SDS011;52576;53.614;9.894;2022-09-09T02:54:23;179.95;;;37.78;;
21780;SDS011;52576;53.614;9.894;2022-09-09T02:55:33;120.80;;;35.83;;
21780;SDS011;52576;53.614;9.894;2022-09-09T02:56:46;114.30;;;36.35;;
21780;SDS011;52576;53.614;9.894;2022-09-09T02:57:55;157.30;;;37.38;;
21780;SDS011;52576;53.614;9.894;2022-09-09T02:59:04;102.18;;;35.45;;
21780;SDS011;52576;53.614;9.894;2022-09-09T03:00:08;257.88;;;37.95;;
21780;SDS011;52576;53.614;9.894;2022-09-09T03:01:13;329.98;;;42.88;;
21780;SDS011;52576;53.614;9.894;2022-09-09T03:02:16;84.30;;;33.97;;
21780;SDS011;52576;53.614;9.894;2022-09-09T03:03:24;80.07;;;33.75;;
21780;SDS011;52576;53.614;9.894;2022-09-09T03:04:26;74.63;;;34.60;;
21780;SDS011;52576;53.614;9.894;2022-09-09T03:05:31;83.53;;;34.63;;
21780;SDS011;52576;53.614;9.894;2022-09-09T03:06:33;100.78;;;35.33;;
21780;SDS011;52576;53.614;9.894;2022-09-09T03:07:48;91.68;;;34.95;;
21780;SDS011;52576;53.614;9.894;2022-09-09T03:08:52;77.22;;;33.20;;
21780;SDS011;52576;53.614;9.894;2022-09-09T03:09:59;99.82;;;35.83;;
21780;SDS011;52576;53.614;9.894;2022-09-09T03:11:02;69.22;;;32.97;;
21780;SDS011;52576;53.614;9.894;2022-09-09T03:12:08;72.25;;;33.58;;
21780;SDS011;52576;53.614;9.894;2022-09-09T03:13:11;79.20;;;34.55;;
21780;SDS011;52576;53.614;9.894;2022-09-09T03:14:18;73.05;;;33.72;;
21780;SDS011;52576;53.614;9.894;2022-09-09T03:15:24;79.82;;;33.72;;
21780;SDS011;52576;53.614;9.894;2022-09-09T03:16:30;71.43;;;33.42;;
21780;SDS011;52576;53.614;9.894;2022-09-09T03:17:33;81.15;;;34.67;;
21780;SDS011;52576;53.614;9.894;2022-09-09T03:18:36;83.10;;;35.53;;
21780;SDS011;52576;53.614;9.894;2022-09-09T03:19:39;75.82;;;34.58;;
21780;SDS011;52576;53.614;9.894;2022-09-09T03:20:43;70.35;;;33.55;;
21780;SDS011;52576;53.614;9.894;2022-09-09T03:21:45;71.15;;;32.97;;
21780;SDS011;52576;53.614;9.894;2022-09-09T03:22:48;75.53;;;33.55;;
21780;SDS011;52576;53.614;9.894;2022-09-09T03:23:51;75.18;;;34.42;;
21780;SDS011;52576;53.614;9.894;2022-09-09T03:24:54;75.88;;;32.45;;
21780;SDS011;52576;53.614;9.894;2022-09-09T03:25:56;78.72;;;33.90;;
21780;SDS011;52576;53.614;9.894;2022-09-09T03:27:09;122.30;;;35.22;;
21780;SDS011;52576;53.614;9.894;2022-09-09T03:28:12;75.43;;;34.25;;
21780;SDS011;52576;53.614;9.894;2022-09-09T03:29:18;86.22;;;34.65;;
21780;SDS011;52576;53.614;9.894;2022-09-09T03:30:20;76.65;;;34.65;;
21780;SDS011;52576;53.614;9.894;2022-09-09T03:31:24;74.80;;;32.33;;
21780;SDS011;52576;53.614;9.894;2022-09-09T03:32:26;68.57;;;32.42;;
21780;SDS011;52576;53.614;9.894;2022-09-09T03:33:31;75.03;;;32.22;;
21780;SDS011;52576;53.614;9.894;2022-09-09T03:34:33;71.72;;;32.35;;
21780;SDS011;52576;53.614;9.894;2022-09-09T03:35:36;81.28;;;33.25;;
21780;SDS011;52576;53.614;9.894;2022-09-09T03:36:39;65.82;;;31.58;;
21780;SDS011;52576;53.614;9.894;2022-09-09T03:37:43;67.22;;;30.92;;
21780;SDS011;52576;53.614;9.894;2022-09-09T03:38:46;67.57;;;31.40;;
21780;SDS011;52576;53.614;9.894;2022-09-09T03:39:49;87.18;;;34.08;;
21780;SDS011;52576;53.614;9.894;2022-09-09T03:40:53;66.32;;;32.00;;
21780;SDS011;52576;53.614;9.894;2022-09-09T03:41:59;71.85;;;32.28;;
21780;SDS011;52576;53.614;9.894;2022-09-09T03:43:05;63.63;;;29.98;;
21780;SDS011;52576;53.614;9.894;2022-09-09T03:44:08;72.32;;;31.10;;
21780;SDS011;52576;53.614;9.894;2022-09-09T03:45:14;74.38;;;31.80;;
21780;SDS011;52576;53.614;9.894;2022-09-09T03:46:18;62.20;;;31.40;;
21780;SDS011;52576;53.614;9.894;2022-09-09T03:47:21;62.22;;;30.95;;
21780;SDS011;52576;53.614;9.894;2022-09-09T03:48:28;63.17;;;31.08;;
21780;SDS011;52576;53.614;9.894;2022-09-09T03:49:31;68.90;;;30.88;;
21780;SDS011;52576;53.614;9.894;2022-09-09T03:50:34;119.38;;;32.88;;
21780;SDS011;52576;53.614;9.894;2022-09-09T03:51:37;66.82;;;30.55;;
21780;SDS011;52576;53.614;9.894;2022-09-09T03:52:40;65.70;;;30.98;;
21780;SDS011;52576;53.614;9.894;2022-09-09T03:53:50;62.10;;;29.77;;
21780;SDS011;52576;53.614;9.894;2022-09-09T03:54:53;59.75;;;29.13;;
21780;SDS011;52576;53.614;9.894;2022-09-09T03:55:56;58.40;;;29.83;;
21780;SDS011;52576;53.614;9.894;2022-09-09T03:57:02;57.00;;;29.67;;
21780;SDS011;52576;53.614;9.894;2022-09-09T03:58:04;65.50;;;31.85;;
21780;SDS011;52576;53.614;9.894;2022-09-09T03:59:08;54.33;;;28.52;;
21780;SDS011;52576;53.614;9.894;2022-09-09T04:00:10;61.25;;;31.08;;
21780;SDS011;52576;53.614;9.894;2022-09-09T04:01:18;57.55;;;28.67;;
21780;SDS011;52576;53.614;9.894;2022-09-09T04:02:21;58.65;;;30.73;;
21780;SDS011;52576;53.614;9.894;2022-09-09T04:03:24;58.05;;;30.08;;
21780;SDS011;52576;53.614;9.894;2022-09-09T04:04:29;55.58;;;28.63;;
21780;SDS011;52576;53.614;9.894;2022-09-09T04:05:32;58.13;;;28.85;;
21780;SDS011;52576;53.614;9.894;2022-09-09T04:06:35;56.65;;;28.27;;
21780;SDS011;52576;53.614;9.894;2022-09-09T04:07:38;50.20;;;27.90;;
21780;SDS011;52576;53.614;9.894;2022-09-09T04:08:40;47.95;;;26.42;;
21780;SDS011;52576;53.614;9.894;2022-09-09T04:09:44;49.83;;;27.02;;
21780;SDS011;52576;53.614;9.894;2022-09-09T04:10:47;50.15;;;27.13;;
21780;SDS011;52576;53.614;9.894;2022-09-09T04:11:52;48.80;;;26.92;;
21780;SDS011;52576;53.614;9.894;2022-09-09T04:12:54;42.60;;;25.08;;
21780;SDS011;52576;53.614;9.894;2022-09-09T04:13:57;45.92;;;25.85;;
21780;SDS011;52576;53.614;9.894;2022-09-09T04:15:00;50.25;;;25.90;;
21780;SDS011;52576;53.614;9.894;2022-09-09T04:16:04;49.90;;;25.83;;
21780;SDS011;52576;53.614;9.894;2022-09-09T04:17:10;47.53;;;26.60;;
21780;SDS011;52576;53.614;9.894;2022-09-09T04:18:13;47.55;;;26.83;;
21780;SDS011;52576;53.614;9.894;2022-09-09T04:19:20;47.33;;;25.30;;
21780;SDS011;52576;53.614;9.894;2022-09-09T04:20:24;47.03;;;25.30;;
21780;SDS011;52576;53.614;9.894;2022-09-09T04:21:26;46.33;;;25.70;;
21780;SDS011;52576;53.614;9.894;2022-09-09T04:22:29;49.78;;;27.00;;
21780;SDS011;52576;53.614;9.894;2022-09-09T04:23:33;47.40;;;25.70;;
21780;SDS011;52576;53.614;9.894;2022-09-09T04:24:38;49.40;;;25.75;;
21780;SDS011;52576;53.614;9.894;2022-09-09T04:25:46;44.17;;;25.00;;
21780;SDS011;52576;53.614;9.894;2022-09-09T04:26:49;47.33;;;24.95;;
21780;SDS011;52576;53.614;9.894;2022-09-09T04:27:53;43.63;;;26.08;;
21780;SDS011;52576;53.614;9.894;2022-09-09T04:28:56;51.20;;;25.02;;
21780;SDS011;52576;53.614;9.894;2022-09-09T04:29:59;47.20;;;26.33;;
21780;SDS011;52576;53.614;9.894;2022-09-09T04:31:05;45.38;;;24.75;;
21780;SDS011;52576;53.614;9.894;2022-09-09T04:32:11;44.05;;;25.42;;
21780;SDS011;52576;53.614;9.894;2022-09-09T04:33:14;42.63;;;24.80;;
21780;SDS011;52576;53.614;9.894;2022-09-09T04:34:19;44.75;;;24.92;;
21780;SDS011;52576;53.614;9.894;2022-09-09T04:35:22;45.65;;;25.05;;
21780;SDS011;52576;53.614;9.894;2022-09-09T04:36:24;46.72;;;25.80;;
21780;SDS011;52576;53.614;9.894;2022-09-09T04:37:32;41.80;;;24.73;;
21780;SDS011;52576;53.614;9.894;2022-09-09T04:38:34;42.53;;;25.25;;
21780;SDS011;52576;53.614;9.894;2022-09-09T04:39:38;47.50;;;24.88;;
21780;SDS011;52576;53.614;9.894;2022-09-09T04:40:41;47.20;;;24.77;;
21780;SDS011;52576;53.614;9.894;2022-09-09T04:41:45;49.72;;;26.13;;
21780;SDS011;52576;53.614;9.894;2022-09-09T04:42:47;47.60;;;25.15;;
21780;SDS011;52576;53.614;9.894;2022-09-09T04:43:51;39.75;;;24.25;;
21780;SDS011;52576;53.614;9.894;2022-09-09T04:44:55;42.70;;;25.15;;
21780;SDS011;52576;53.614;9.894;2022-09-09T04:45:58;38.78;;;23.85;;
21780;SDS011;52576;53.614;9.894;2022-09-09T04:47:01;37.60;;;23.50;;
21780;SDS011;52576;53.614;9.894;2022-09-09T04:48:05;41.40;;;23.75;;
21780;SDS011;52576;53.614;9.894;2022-09-09T04:49:08;38.92;;;23.60;;
21780;SDS011;52576;53.614;9.894;2022-09-09T04:50:16;39.90;;;23.38;;
21780;SDS011;52576;53.614;9.894;2022-09-09T04:51:21;41.17;;;23.17;;
21780;SDS011;52576;53.614;9.894;2022-09-09T04:52:25;38.85;;;22.60;;
21780;SDS011;52576;53.614;9.894;2022-09-09T04:53:27;45.22;;;24.20;;
21780;SDS011;52576;53.614;9.894;2022-09-09T04:54:30;43.85;;;23.95;;
21780;SDS011;52576;53.614;9.894;2022-09-09T04:55:32;39.90;;;23.50;;
21780;SDS011;52576;53.614;9.894;2022-09-09T04:56:36;33.97;;;22.70;;
21780;SDS011;52576;53.614;9.894;2022-09-09T04:57:39;40.40;;;23.15;;
21780;SDS011;52576;53.614;9.894;2022-09-09T04:58:43;37.20;;;23.50;;
21780;SDS011;52576;53.614;9.894;2022-09-09T04:59:45;38.72;;;22.58;;
21780;SDS011;52576;53.614;9.894;2022-09-09T05:00:49;41.15;;;23.40;;
21780;SDS011;52576;53.614;9.894;2022-09-09T05:01:54;43.63;;;23.73;;
21780;SDS011;52576;53.614;9.894;2022-09-09T05:02:57;43.00;;;22.92;;
21780;SDS011;52576;53.614;9.894;2022-09-09T05:04:00;39.17;;;22.75;;
21780;SDS011;52576;53.614;9.894;2022-09-09T05:05:06;37.70;;;23.38;;
21780;SDS011;52576;53.614;9.894;2022-09-09T05:06:09;40.03;;;22.63;;
21780;SDS011;52576;53.614;9.894;2022-09-09T05:07:13;35.90;;;22.33;;
21780;SDS011;52576;53.614;9.894;2022-09-09T05:08:16;36.17;;;21.67;;
21780;SDS011;52576;53.614;9.894;2022-09-09T05:09:19;37.72;;;23.90;;
21780;SDS011;52576;53.614;9.894;2022-09-09T05:10:22;38.70;;;22.80;;
21780;SDS011;52576;53.614;9.894;2022-09-09T05:11:25;35.80;;;22.60;;
21780;SDS011;52576;53.614;9.894;2022-09-09T05:12:34;34.78;;;20.30;;
21780;SDS011;52576;53.614;9.894;2022-09-09T05:13:36;38.80;;;22.63;;
21780;SDS011;52576;53.614;9.894;2022-09-09T05:14:42;35.80;;;21.17;;
21780;SDS011;52576;53.614;9.894;2022-09-09T05:15:50;35.00;;;21.77;;
21780;SDS011;52576;53.614;9.894;2022-09-09T05:16:54;39.85;;;22.63;;
21780;SDS011;52576;53.614;9.894;2022-09-09T05:17:58;37.92;;;22.35;;
21780;SDS011;52576;53.614;9.894;2022-09-09T05:19:05;34.28;;;21.60;;
21780;SDS011;52576;53.614;9.894;2022-09-09T05:20:18;36.70;;;21.25;;
21780;SDS011;52576;53.614;9.894;2022-09-09T05:21:22;35.00;;;21.67;;
21780;SDS011;52576;53.614;9.894;2022-09-09T05:22:26;35.95;;;21.85;;
21780;SDS011;52576;53.614;9.894;2022-09-09T05:23:28;33.10;;;21.20;;
21780;SDS011;52576;53.614;9.894;2022-09-09T05:24:31;33.97;;;21.13;;
21780;SDS011;52576;53.614;9.894;2022-09-09T05:25:36;33.42;;;21.13;;
21780;SDS011;52576;53.614;9.894;2022-09-09T05:26:43;33.10;;;20.83;;
21780;SDS011;52576;53.614;9.894;2022-09-09T05:27:45;34.45;;;21.38;;
21780;SDS011;52576;53.614;9.894;2022-09-09T05:28:48;38.38;;;21.35;;
21780;SDS011;52576;53.614;9.894;2022-09-09T05:29:51;34.85;;;20.50;;
21780;SDS011;52576;53.614;9.894;2022-09-09T05:30:55;37.35;;;22.55;;
21780;SDS011;52576;53.614;9.894;2022-09-09T05:31:59;34.85;;;21.52;;
21780;SDS011;52576;53.614;9.894;2022-09-09T05:33:02;35.35;;;21.65;;
21780;SDS011;52576;53.614;9.894;2022-09-09T05:34:06;37.10;;;21.63;;
21780;SDS011;52576;53.614;9.894;2022-09-09T05:35:09;33.85;;;20.83;;
21780;SDS011;52576;53.614;9.894;2022-09-09T05:36:13;33.67;;;20.92;;
21780;SDS011;52576;53.614;9.894;2022-09-09T05:37:19;29.83;;;19.63;;
21780;SDS011;52576;53.614;9.894;2022-09-09T05:38:22;31.15;;;19.45;;
21780;SDS011;52576;53.614;9.894;2022-09-09T05:39:34;33.33;;;20.52;;
21780;SDS011;52576;53.614;9.894;2022-09-09T05:40:38;33.13;;;19.40;;
21780;SDS011;52576;53.614;9.894;2022-09-09T05:41:44;28.98;;;19.55;;
21780;SDS011;52576;53.614;9.894;2022-09-09T05:42:46;32.45;;;20.05;;
21780;SDS011;52576;53.614;9.894;2022-09-09T05:43:49;34.55;;;19.48;;
21780;SDS011;52576;53.614;9.894;2022-09-09T05:44:52;34.60;;;21.67;;
21780;SDS011;52576;53.614;9.894;2022-09-09T05:46:00;38.70;;;20.98;;
21780;SDS011;52576;53.614;9.894;2022-09-09T05:47:04;33.72;;;21.08;;
21780;SDS011;52576;53.614;9.894;2022-09-09T05:48:09;30.55;;;20.60;;
21780;SDS011;52576;53.614;9.894;2022-09-09T05:49:13;29.13;;;19.52;;
21780;SDS011;52576;53.614;9.894;2022-09-09T05:50:17;30.63;;;19.35;;
21780;SDS011;52576;53.614;9.894;2022-09-09T05:51:20;30.17;;;19.58;;
21780;SDS011;52576;53.614;9.894;2022-09-09T05:52:25;35.65;;;19.30;;
21780;SDS011;52576;53.614;9.894;2022-09-09T05:53:29;35.90;;;19.15;;
21780;SDS011;52576;53.614;9.894;2022-09-09T05:54:35;32.58;;;18.60;;
21780;SDS011;52576;53.614;9.894;2022-09-09T05:55:39;29.33;;;17.63;;
21780;SDS011;52576;53.614;9.894;2022-09-09T05:56:42;28.98;;;17.95;;
21780;SDS011;52576;53.614;9.894;2022-09-09T05:57:47;26.00;;;16.83;;
21780;SDS011;52576;53.614;9.894;2022-09-09T05:58:53;23.77;;;15.90;;
21780;SDS011;52576;53.614;9.894;2022-09-09T05:59:57;26.95;;;16.42;;
21780;SDS011;52576;53.614;9.894;2022-09-09T06:01:02;24.23;;;17.10;;
21780;SDS011;52576;53.614;9.894;2022-09-09T06:02:07;23.15;;;16.10;;
21780;SDS011;52576;53.614;9.894;2022-09-09T06:03:11;23.17;;;14.23;;
21780;SDS011;52576;53.614;9.894;2022-09-09T06:04:15;26.42;;;14.50;;
21780;SDS011;52576;53.614;9.894;2022-09-09T06:05:19;21.48;;;13.32;;
21780;SDS011;52576;53.614;9.894;2022-09-09T06:06:22;21.42;;;12.55;;
21780;SDS011;52576;53.614;9.894;2022-09-09T06:07:29;17.85;;;12.18;;
21780;SDS011;52576;53.614;9.894;2022-09-09T06:08:31;21.52;;;12.20;;
21780;SDS011;52576;53.614;9.894;2022-09-09T06:09:35;20.00;;;12.27;;
21780;SDS011;52576;53.614;9.894;2022-09-09T06:10:37;17.63;;;11.65;;
21780;SDS011;52576;53.614;9.894;2022-09-09T06:11:40;16.15;;;10.75;;
21780;SDS011;52576;53.614;9.894;2022-09-09T06:12:44;13.45;;;10.40;;
21780;SDS011;52576;53.614;9.894;2022-09-09T06:13:47;16.60;;;10.38;;
21780;SDS011;52576;53.614;9.894;2022-09-09T06:14:52;16.88;;;10.73;;
21780;SDS011;52576;53.614;9.894;2022-09-09T06:15:55;16.20;;;10.35;;
21780;SDS011;52576;53.614;9.894;2022-09-09T06:16:57;14.02;;;9.40;;
21780;SDS011;52576;53.614;9.894;2022-09-09T06:18:03;17.45;;;9.23;;
21780;SDS011;52576;53.614;9.894;2022-09-09T06:19:06;16.58;;;7.65;;
21780;SDS011;52576;53.614;9.894;2022-09-09T06:20:10;13.85;;;8.45;;
21780;SDS011;52576;53.614;9.894;2022-09-09T06:21:14;12.75;;;7.43;;
21780;SDS011;52576;53.614;9.894;2022-09-09T06:22:19;11.50;;;7.07;;
21780;SDS011;52576;53.614;9.894;2022-09-09T06:23:22;13.98;;;6.72;;
21780;SDS011;52576;53.614;9.894;2022-09-09T06:24:24;10.18;;;6.88;;
21780;SDS011;52576;53.614;9.894;2022-09-09T06:25:27;12.23;;;6.50;;
21780;SDS011;52576;53.614;9.894;2022-09-09T06:26:30;11.13;;;6.10;;
21780;SDS011;52576;53.614;9.894;2022-09-09T06:27:36;13.60;;;6.35;;
21780;SDS011;52576;53.614;9.894;2022-09-09T06:28:38;12.07;;;6.03;;
21780;SDS011;52576;53.614;9.894;2022-09-09T06:29:42;14.10;;;6.75;;
21780;SDS011;52576;53.614;9.894;2022-09-09T06:30:46;9.38;;;6.20;;
21780;SDS011;52576;53.614;9.894;2022-09-09T06:31:49;9.80;;;5.93;;